createdAt,value
2022-12-06T00:01:32.125Z,97830.78
2022-12-06T00:04:03.557Z,97822.81
2022-12-06T00:06:37.459Z,97822.81
2022-12-06T00:09:06.501Z,97829.97
2022-12-06T00:11:36.746Z,97816.50
2022-12-06T00:14:07.171Z,97822.00
2022-12-06T00:16:36.392Z,97814.06
2022-12-06T00:19:05.639Z,97821.19
2022-12-06T00:21:37.094Z,97825.88
2022-12-06T00:24:07.316Z,97811.28
2022-12-06T00:26:37.083Z,97818.75
2022-12-06T00:29:06.544Z,97816.00
2022-12-06T00:31:35.804Z,97818.75
2022-12-06T00:34:05.778Z,97813.25
2022-12-06T00:36:37.383Z,97817.13
2022-12-06T00:39:08.038Z,97807.72
2022-12-06T00:41:36.722Z,97806.09
2022-12-06T00:44:05.767Z,97809.97
2022-12-06T00:46:35.278Z,97812.41
2022-12-06T00:49:06.221Z,97817.13
2022-12-06T00:51:37.587Z,97813.25
2022-12-06T00:54:07.368Z,97813.25
2022-12-06T00:56:37.123Z,97809.16
2022-12-06T00:59:06.881Z,97818.75
2022-12-06T01:01:36.731Z,97807.72
2022-12-06T01:04:07.246Z,97812.41
2022-12-06T01:06:38.462Z,97800.59
2022-12-06T01:09:09.831Z,97802.84
2022-12-06T01:11:38.949Z,97797.84
2022-12-06T01:14:07.605Z,97798.97
2022-12-06T01:16:36.413Z,97801.72
2022-12-06T01:19:06.679Z,97809.16
2022-12-06T01:21:35.201Z,97803.66
2022-12-06T01:24:05.564Z,97804.47
2022-12-06T01:26:36.890Z,97808.03
2022-12-06T01:29:05.603Z,97807.22
2022-12-06T01:31:38.649Z,97806.09
2022-12-06T01:34:09.005Z,97807.22
2022-12-06T01:36:37.520Z,97812.72
2022-12-06T01:39:10.529Z,97809.16
2022-12-06T01:41:39.966Z,97805.59
2022-12-06T01:44:29.046Z,97802.84
2022-12-06T01:46:58.807Z,97795.69
2022-12-06T01:49:34.457Z,97800.09
2022-12-06T01:52:07.072Z,97789.38
2022-12-06T01:54:35.965Z,97794.06
2022-12-06T01:57:08.147Z,97794.06
2022-12-06T01:59:37.235Z,97789.38
2022-12-06T02:02:08.273Z,97783.06
2022-12-06T02:04:37.406Z,97788.56
2022-12-06T02:07:07.376Z,97785.81
2022-12-06T02:09:37.809Z,97778.38
2022-12-06T02:12:13.071Z,97778.38
2022-12-06T02:14:44.630Z,97783.06
2022-12-06T02:17:40.105Z,97781.94
2022-12-06T02:20:23.309Z,97778.38
2022-12-06T02:23:19.245Z,97775.31
2022-12-06T02:26:16.043Z,97776.44
2022-12-06T02:29:09.562Z,97772.84
2022-12-06T02:31:44.199Z,97773.66
2022-12-06T02:34:17.284Z,97780.00
2022-12-06T02:36:53.755Z,97766.53
2022-12-06T02:39:28.493Z,97764.28
2022-12-06T02:42:00.150Z,97761.03
2022-12-06T02:44:34.374Z,97763.78
2022-12-06T02:47:06.564Z,97756.66
2022-12-06T02:49:38.439Z,97748.38
2022-12-06T02:52:07.123Z,97746.75
2022-12-06T02:54:35.673Z,97749.50
2022-12-06T02:57:04.234Z,97744.00
2022-12-06T02:59:32.615Z,97744.81
2022-12-06T03:02:06.082Z,97745.94
2022-12-06T03:04:56.360Z,97745.63
2022-12-06T03:07:40.865Z,97741.56
2022-12-06T03:10:23.142Z,97752.25
2022-12-06T03:13:02.272Z,97745.13
2022-12-06T03:15:41.839Z,97741.88
2022-12-06T03:18:18.463Z,97745.13
2022-12-06T03:20:52.220Z,97741.06
2022-12-06T03:23:25.192Z,97736.34
2022-12-06T03:25:56.426Z,97730.84
2022-12-06T03:28:25.268Z,97730.03
2022-12-06T03:30:58.679Z,97731.66
2022-12-06T03:33:30.962Z,97726.97
2022-12-06T03:36:00.355Z,97720.66
2022-12-06T03:38:33.609Z,97721.47
2022-12-06T03:41:04.790Z,97716.78
2022-12-06T03:43:34.243Z,97717.91
2022-12-06T03:46:07.767Z,97713.22
2022-12-06T03:48:41.682Z,97717.59
2022-12-06T03:51:14.940Z,97723.09
2022-12-06T03:53:47.842Z,97718.22
2022-12-06T03:56:16.984Z,97715.97
2022-12-06T03:58:45.667Z,97717.59
2022-12-06T04:01:14.223Z,97715.97
2022-12-06T04:03:44.078Z,97720.66
2022-12-06T04:06:13.258Z,97719.84
2022-12-06T04:08:41.974Z,97718.22
2022-12-06T04:11:10.396Z,97718.22
2022-12-06T04:13:39.422Z,97715.47
2022-12-06T04:16:29.185Z,97715.47
2022-12-06T04:18:57.976Z,97717.09
2022-12-06T04:21:43.764Z,97707.19
2022-12-06T04:24:12.143Z,97704.94
2022-12-06T04:26:40.579Z,97701.38
2022-12-06T04:29:26.739Z,97698.94
2022-12-06T04:32:12.604Z,97700.88
2022-12-06T04:34:59.988Z,97706.06
2022-12-06T04:37:46.223Z,97694.56
2022-12-06T04:40:14.715Z,97700.06
2022-12-06T04:43:03.010Z,97695.38
2022-12-06T04:45:31.375Z,97696.19
2022-12-06T04:47:59.770Z,97690.19
2022-12-06T04:50:29.490Z,97689.88
2022-12-06T04:52:57.908Z,97687.41
2022-12-06T04:55:26.311Z,97681.91
2022-12-06T04:57:54.687Z,97682.72
2022-12-06T05:00:23.386Z,97683.53
2022-12-06T05:02:51.792Z,97689.06
2022-12-06T05:05:20.190Z,97683.53
2022-12-06T05:07:49.992Z,97686.28
2022-12-06T05:10:18.472Z,97685.16
2022-12-06T05:12:46.865Z,97691.50
2022-12-06T05:15:16.046Z,97690.69
2022-12-06T05:17:44.455Z,97690.69
2022-12-06T05:20:14.337Z,97697.00
2022-12-06T05:22:42.841Z,97697.00
2022-12-06T05:25:12.673Z,97687.94
2022-12-06T05:27:41.076Z,97695.88
2022-12-06T05:30:10.790Z,97688.44
2022-12-06T05:32:39.449Z,97686.19
2022-12-06T05:35:09.088Z,97682.31
2022-12-06T05:37:37.460Z,97681.56
2022-12-06T05:40:07.247Z,97682.06
2022-12-06T05:42:37.635Z,97682.88
2022-12-06T05:45:06.964Z,97674.94
2022-12-06T05:47:35.591Z,97678.00
2022-12-06T05:50:05.492Z,97678.81
2022-12-06T05:52:33.880Z,97678.00
2022-12-06T05:55:02.278Z,97677.19
2022-12-06T05:57:30.662Z,97676.38
2022-12-06T06:00:00.763Z,97682.69
2022-12-06T06:02:29.412Z,97682.69
2022-12-06T06:04:57.947Z,97684.63
2022-12-06T06:07:26.356Z,97685.44
2022-12-06T06:09:54.768Z,97689.81
2022-12-06T06:12:23.248Z,97677.19
2022-12-06T06:14:51.711Z,97684.31
2022-12-06T06:17:21.483Z,97685.44
2022-12-06T06:19:51.507Z,97684.94
2022-12-06T06:22:22.225Z,97680.25
2022-12-06T06:24:51.591Z,97683.81
2022-12-06T06:27:20.098Z,97675.56
2022-12-06T06:29:48.561Z,97688.19
2022-12-06T06:32:17.030Z,97685.44
2022-12-06T06:34:47.029Z,97681.06
2022-12-06T06:37:15.481Z,97688.19
2022-12-06T06:39:43.926Z,97682.69
2022-12-06T06:42:12.359Z,97693.72
2022-12-06T06:44:40.792Z,97688.19
2022-12-06T06:47:09.233Z,97689.81
2022-12-06T06:49:37.915Z,97693.72
2022-12-06T06:52:07.956Z,97686.75
2022-12-06T06:54:36.497Z,97687.78
2022-12-06T06:57:05.120Z,97693.47
2022-12-06T06:59:33.641Z,97687.97
2022-12-06T07:02:02.131Z,97695.78
2022-12-06T07:04:30.570Z,97697.31
2022-12-06T07:07:00.530Z,97695.06
2022-12-06T07:09:30.419Z,97699.34
2022-12-06T07:11:58.807Z,97695.66
2022-12-06T07:14:27.235Z,97691.13
2022-12-06T07:16:55.786Z,97689.69
2022-12-06T07:19:24.275Z,97682.25
2022-12-06T07:21:52.730Z,97695.41
2022-12-06T07:24:21.258Z,97683.56
2022-12-06T07:26:51.120Z,97686.00
2022-12-06T07:29:19.576Z,97687.94
2022-12-06T07:31:48.075Z,97697.03
2022-12-06T07:34:16.674Z,97689.25
2022-12-06T07:36:45.147Z,97683.13
2022-12-06T07:39:15.131Z,97688.00
2022-12-06T07:42:01.358Z,97700.34
2022-12-06T07:45:02.192Z,97689.00
2022-12-06T07:47:37.123Z,97685.94
2022-12-06T07:50:08.107Z,97690.00
2022-12-06T07:52:38.546Z,97679.47
2022-12-06T07:55:08.311Z,97686.31
2022-12-06T07:57:42.952Z,97679.97
2022-12-06T08:00:15.977Z,97682.41
2022-12-06T08:02:44.927Z,97681.09
2022-12-06T08:05:14.019Z,97687.94
2022-12-06T08:07:42.463Z,97688.25
2022-12-06T08:10:11.191Z,97682.22
2022-12-06T08:12:39.568Z,97682.72
2022-12-06T08:15:12.924Z,97678.50
2022-12-06T08:17:43.153Z,97685.31
2022-12-06T08:20:12.908Z,97682.44
2022-12-06T08:22:41.431Z,97684.25
2022-12-06T08:25:10.785Z,97674.53
2022-12-06T08:27:39.194Z,97678.09
2022-12-06T08:30:09.055Z,97678.59
2022-12-06T08:32:37.488Z,97682.66
2022-12-06T08:35:08.043Z,97674.06
2022-12-06T08:37:36.487Z,97678.13
2022-12-06T08:40:05.873Z,97681.06
2022-12-06T08:42:34.423Z,97684.00
2022-12-06T08:45:02.897Z,97691.97
2022-12-06T08:47:31.860Z,97690.53
2022-12-06T08:50:00.683Z,97701.13
2022-12-06T08:52:30.771Z,97694.16
2022-12-06T08:54:59.266Z,97701.31
2022-12-06T08:57:27.628Z,97694.16
2022-12-06T08:59:56.107Z,97699.69
2022-12-06T09:02:24.528Z,97691.91
2022-12-06T09:04:53.033Z,97701.50
2022-12-06T09:07:22.941Z,97700.03
2022-12-06T09:09:54.242Z,97698.41
2022-12-06T09:12:22.891Z,97690.44
2022-12-06T09:14:51.495Z,97700.69
2022-12-06T09:17:19.927Z,97697.09
2022-12-06T09:19:48.542Z,97701.81
2022-12-06T09:22:16.990Z,97692.41
2022-12-06T09:24:45.384Z,97694.97
2022-12-06T09:27:15.190Z,97691.41
2022-12-06T09:29:43.660Z,97694.50
2022-12-06T09:32:12.110Z,97701.31
2022-12-06T09:34:40.454Z,97697.41
2022-12-06T09:37:14.071Z,97702.94
2022-12-06T09:39:45.310Z,97702.13
2022-12-06T09:42:43.459Z,97705.38
2022-12-06T09:45:25.676Z,97699.06
2022-12-06T09:48:11.228Z,97705.88
2022-12-06T09:50:50.363Z,97698.41
2022-12-06T09:53:28.486Z,97699.22
2022-12-06T09:56:06.395Z,97690.63
2022-12-06T09:58:58.841Z,97691.94
2022-12-06T10:01:39.467Z,97688.88
2022-12-06T10:04:30.440Z,97687.72
2022-12-06T10:07:08.654Z,97686.91
2022-12-06T10:09:50.379Z,97690.50
2022-12-06T10:12:30.891Z,97679.44
2022-12-06T10:15:16.536Z,97693.25
2022-12-06T10:18:03.105Z,97678.97
2022-12-06T10:20:39.874Z,97682.03
2022-12-06T10:23:21.462Z,97681.84
2022-12-06T10:26:00.898Z,97688.00
2022-12-06T10:28:39.662Z,97673.72
2022-12-06T10:31:19.879Z,97682.63
2022-12-06T10:33:55.245Z,97673.84
2022-12-06T10:36:39.388Z,97680.47
2022-12-06T10:39:18.460Z,97679.66
2022-12-06T10:41:52.633Z,97669.78
2022-12-06T10:44:26.567Z,97677.22
2022-12-06T10:47:06.711Z,97672.84
2022-12-06T10:49:45.523Z,97672.53
2022-12-06T10:52:26.378Z,97665.38
2022-12-06T10:55:06.230Z,97666.19
2022-12-06T10:57:43.810Z,97675.59
2022-12-06T11:00:16.724Z,97665.69
2022-12-06T11:02:54.404Z,97666.84
2022-12-06T11:05:29.252Z,97669.09
2022-12-06T11:08:04.259Z,97661.94
2022-12-06T11:10:36.391Z,97665.84
2022-12-06T11:13:16.119Z,97663.41
2022-12-06T11:15:51.726Z,97648.31
2022-12-06T11:18:21.483Z,97651.38
2022-12-06T11:20:58.667Z,97652.81
2022-12-06T11:23:36.165Z,97649.56
2022-12-06T11:26:13.848Z,97648.75
2022-12-06T11:28:44.716Z,97653.47
2022-12-06T11:31:24.734Z,97655.09
2022-12-06T11:33:53.573Z,97656.72
2022-12-06T11:36:25.602Z,97651.19
2022-12-06T11:38:54.246Z,97639.03
2022-12-06T11:41:27.468Z,97634.97
2022-12-06T11:43:57.139Z,97647.31
2022-12-06T11:46:26.835Z,97641.31
2022-12-06T11:48:58.721Z,97652.81
2022-12-06T11:51:28.515Z,97642.59
2022-12-06T11:54:03.623Z,97643.41
2022-12-06T11:56:35.365Z,97641.16
2022-12-06T11:59:20.459Z,97647.50
2022-12-06T12:01:51.635Z,97648.31
2022-12-06T12:04:37.808Z,97648.31
2022-12-06T12:07:16.075Z,97649.13
2022-12-06T12:09:51.046Z,97641.97
2022-12-06T12:12:22.258Z,97638.09
2022-12-06T12:14:57.675Z,97644.41
2022-12-06T12:17:31.239Z,97641.34
2022-12-06T12:20:03.972Z,97632.75
2022-12-06T12:22:37.269Z,97633.72
2022-12-06T12:25:23.250Z,97629.84
2022-12-06T12:27:54.132Z,97630.34
2022-12-06T12:30:31.977Z,97630.84
2022-12-06T12:33:19.853Z,97621.94
2022-12-06T12:35:51.119Z,97626.34
2022-12-06T12:38:37.899Z,97620.19
2022-12-06T12:41:23.343Z,97623.44
2022-12-06T12:44:20.820Z,97629.44
2022-12-06T12:46:53.477Z,97622.78
2022-12-06T12:49:25.868Z,97630.44
2022-12-06T12:51:54.637Z,97632.06
2022-12-06T12:54:29.683Z,97636.44
2022-12-06T12:56:59.995Z,97637.75
2022-12-06T12:59:33.795Z,97638.69
2022-12-06T13:02:06.230Z,97627.50
2022-12-06T13:04:42.356Z,97630.72
2022-12-06T13:07:21.659Z,97635.22
2022-12-06T13:09:58.838Z,97631.47
2022-12-06T13:12:31.759Z,97623.34
2022-12-06T13:15:05.836Z,97625.59
2022-12-06T13:17:36.703Z,97623.16
2022-12-06T13:20:20.712Z,97618.59
2022-12-06T13:22:52.149Z,97621.34
2022-12-06T13:25:21.951Z,97617.47
2022-12-06T13:27:54.448Z,97618.91
2022-12-06T13:30:25.577Z,97612.91
2022-12-06T13:32:57.726Z,97625.75
2022-12-06T13:35:29.976Z,97618.47
2022-12-06T13:38:00.569Z,97624.97
2022-12-06T13:40:46.784Z,97622.06
2022-12-06T13:43:55.444Z,97624.72
2022-12-06T13:46:34.242Z,97624.88
2022-12-06T13:49:21.723Z,97612.72
2022-12-06T13:51:50.697Z,97607.69
2022-12-06T13:54:41.546Z,97606.88
2022-12-06T13:57:31.061Z,97611.75
2022-12-06T13:59:59.913Z,97611.75
2022-12-06T14:02:53.268Z,97607.88
2022-12-06T14:06:03.412Z,97618.25
2022-12-06T14:08:37.668Z,97614.38
2022-12-06T14:11:22.194Z,97610.47
2022-12-06T14:14:02.136Z,97616.81
2022-12-06T14:16:36.628Z,97611.13
2022-12-06T14:19:14.969Z,97615.81
2022-12-06T14:21:51.724Z,97617.59
2022-12-06T14:24:32.110Z,97615.47
2022-12-06T14:27:12.337Z,97622.94
2022-12-06T14:29:42.942Z,97627.31
2022-12-06T14:32:11.753Z,97621.47
2022-12-06T14:34:40.421Z,97631.22
2022-12-06T14:37:20.549Z,97627.16
2022-12-06T14:39:52.266Z,97630.22
2022-12-06T14:42:39.220Z,97624.72
2022-12-06T14:45:14.442Z,97631.84
2022-12-06T14:47:44.498Z,97624.19
2022-12-06T14:50:29.825Z,97632.47
2022-12-06T14:53:01.983Z,97629.22
2022-12-06T14:55:33.402Z,97638.63
2022-12-06T14:58:03.294Z,97640.25
2022-12-06T15:00:36.722Z,97639.09
2022-12-06T15:03:23.903Z,97638.28
2022-12-06T15:06:09.932Z,97638.44
2022-12-06T15:08:39.906Z,97629.13
2022-12-06T15:11:42.687Z,97634.94
2022-12-06T15:14:12.857Z,97627.72
2022-12-06T15:16:44.856Z,97622.31
2022-12-06T15:19:15.991Z,97626.63
2022-12-06T15:21:44.380Z,97625.00
2022-12-06T15:24:18.122Z,97630.03
2022-12-06T15:26:46.744Z,97624.00
2022-12-06T15:29:15.338Z,97635.03
2022-12-06T15:31:49.579Z,97636.16
2022-12-06T15:34:27.824Z,97625.47
2022-12-06T15:37:22.193Z,97620.75
2022-12-06T15:39:45.659Z,97624.00
2022-12-06T15:42:18.329Z,97618.50
2022-12-06T15:44:49.559Z,97624.00
2022-12-06T15:47:30.545Z,97621.25
2022-12-06T15:49:59.015Z,97624.00
2022-12-06T15:52:27.884Z,97619.63
2022-12-06T15:54:56.270Z,97623.19
2022-12-06T15:57:24.673Z,97618.81
2022-12-06T15:59:53.114Z,97623.19
2022-12-06T16:02:21.570Z,97624.00
2022-12-06T16:04:51.907Z,97623.50
2022-12-06T16:07:20.335Z,97625.13
2022-12-06T16:09:49.182Z,97629.84
2022-12-06T16:12:18.038Z,97635.03
2022-12-06T16:14:46.466Z,97635.03
2022-12-06T16:17:14.890Z,97642.50
2022-12-06T16:20:01.266Z,97642.81
2022-12-06T16:22:48.463Z,97647.81
2022-12-06T16:25:17.046Z,97642.63
2022-12-06T16:27:45.427Z,97639.53
2022-12-06T16:30:15.171Z,97643.44
2022-12-06T16:32:43.569Z,97642.94
2022-12-06T16:35:12.030Z,97641.81
2022-12-06T16:37:42.170Z,97637.41
2022-12-06T16:40:19.835Z,97641.31
2022-12-06T16:42:48.287Z,97644.06
2022-12-06T16:45:17.571Z,97643.53
2022-12-06T16:47:46.299Z,97638.53
2022-12-06T16:50:21.618Z,97636.88
2022-12-06T16:52:52.060Z,97640.44
2022-12-06T16:55:20.953Z,97640.78
2022-12-06T16:57:49.348Z,97637.50
2022-12-06T17:00:18.445Z,97648.72
2022-12-06T17:02:46.849Z,97649.56
2022-12-06T17:05:19.289Z,97646.81
2022-12-06T17:07:48.096Z,97648.94
2022-12-06T17:10:19.112Z,97651.38
2022-12-06T17:12:49.165Z,97649.13
2022-12-06T17:15:20.410Z,97653.81
2022-12-06T17:17:49.907Z,97649.94
2022-12-06T17:20:19.743Z,97653.19
2022-12-06T17:22:48.453Z,97649.31
2022-12-06T17:25:19.582Z,97656.44
2022-12-06T17:27:49.531Z,97650.94
2022-12-06T17:30:18.616Z,97653.38
2022-12-06T17:32:47.892Z,97648.69
2022-12-06T17:35:16.362Z,97650.31
2022-12-06T17:37:44.808Z,97644.47
2022-12-06T17:40:14.335Z,97635.03
2022-12-06T17:42:58.043Z,97649.50
2022-12-06T17:45:26.919Z,97645.94
2022-12-06T17:47:55.430Z,97645.63
2022-12-06T17:50:23.832Z,97650.31
2022-12-06T17:52:52.222Z,97643.34
2022-12-06T17:55:20.627Z,97647.28
2022-12-06T17:57:50.427Z,97656.44
2022-12-06T18:00:19.504Z,97653.38
2022-12-06T18:02:48.670Z,97652.09
2022-12-06T18:05:17.384Z,97651.97
2022-12-06T18:07:45.833Z,97648.59
2022-12-06T18:10:14.322Z,97657.03
2022-12-06T18:12:42.697Z,97650.56
2022-12-06T18:15:34.035Z,97660.97
2022-12-06T18:18:02.415Z,97655.94
2022-12-06T18:20:30.832Z,97660.00
2022-12-06T18:22:59.217Z,97660.50
2022-12-06T18:25:27.617Z,97654.19
2022-12-06T18:27:55.979Z,97659.38
2022-12-06T18:30:25.787Z,97653.53
2022-12-06T18:32:54.360Z,97659.88
2022-12-06T18:35:22.816Z,97661.81
2022-12-06T18:37:51.210Z,97664.25
2022-12-06T18:40:20.244Z,97666.19
2022-12-06T18:42:48.851Z,97666.69
2022-12-06T18:45:17.564Z,97663.94
2022-12-06T18:47:47.603Z,97667.00
2022-12-06T18:50:16.206Z,97667.81
2022-12-06T18:52:44.634Z,97672.53
2022-12-06T18:55:13.077Z,97672.22
2022-12-06T18:57:41.969Z,97669.44
2022-12-06T19:00:11.801Z,97665.56
2022-12-06T19:02:40.282Z,97666.38
2022-12-06T19:05:10.510Z,97664.47
2022-12-06T19:07:38.932Z,97666.38
2022-12-06T19:10:08.707Z,97661.69
2022-12-06T19:12:37.101Z,97661.69
2022-12-06T19:15:06.538Z,97661.69
2022-12-06T19:17:34.927Z,97656.19
2022-12-06T19:20:03.709Z,97657.28
2022-12-06T19:22:34.903Z,97661.69
2022-12-06T19:25:03.784Z,97661.69
2022-12-06T19:27:32.348Z,97656.19
2022-12-06T19:30:01.080Z,97658.09
2022-12-06T19:32:29.553Z,97661.69
2022-12-06T19:34:59.756Z,97652.28
2022-12-06T19:37:33.232Z,97647.91
2022-12-06T19:40:01.836Z,97645.16
2022-12-06T19:42:48.282Z,97649.00
2022-12-06T19:45:16.572Z,97649.00
2022-12-06T19:47:44.944Z,97645.16
2022-12-06T19:50:13.935Z,97655.34
2022-12-06T19:52:43.725Z,97650.66
2022-12-06T19:55:12.124Z,97651.75
2022-12-06T19:57:40.518Z,97644.94
2022-12-06T20:00:10.260Z,97641.06
2022-12-06T20:02:40.888Z,97652.91
2022-12-06T20:05:09.570Z,97652.91
2022-12-06T20:07:38.145Z,97645.75
2022-12-06T20:10:09.589Z,97648.19
2022-12-06T20:12:37.956Z,97650.94
2022-12-06T20:15:08.033Z,97652.09
2022-12-06T20:17:36.471Z,97649.00
2022-12-06T20:20:06.051Z,97644.63
2022-12-06T20:22:34.582Z,97651.28
2022-12-06T20:25:03.008Z,97643.00
2022-12-06T20:27:46.686Z,97654.03
2022-12-06T20:30:15.765Z,97640.25
2022-12-06T20:32:44.283Z,97644.63
2022-12-06T20:35:12.761Z,97647.91
2022-12-06T20:37:41.255Z,97650.66
2022-12-06T20:40:10.883Z,97649.00
2022-12-06T20:42:40.929Z,97656.19
2022-12-06T20:45:09.647Z,97649.81
2022-12-06T20:47:38.223Z,97651.75
2022-12-06T20:50:07.927Z,97656.19
2022-12-06T20:52:36.408Z,97655.34
2022-12-06T20:55:05.037Z,97655.34
2022-12-06T20:57:33.505Z,97653.44
2022-12-06T21:00:07.331Z,97649.81
2022-12-06T21:02:36.445Z,97656.19
2022-12-06T21:05:05.655Z,97655.34
2022-12-06T21:07:34.453Z,97653.72
2022-12-06T21:10:03.338Z,97658.41
2022-12-06T21:12:31.968Z,97659.22
2022-12-06T21:15:00.386Z,97652.91
2022-12-06T21:17:32.988Z,97658.72
2022-12-06T21:20:01.654Z,97655.66
2022-12-06T21:22:30.372Z,97654.03
2022-12-06T21:24:58.956Z,97651.91
2022-12-06T21:27:29.131Z,97650.28
2022-12-06T21:29:57.642Z,97643.63
2022-12-06T21:32:26.335Z,97652.41
2022-12-06T21:34:56.141Z,97655.16
2022-12-06T21:37:24.591Z,97644.13
2022-12-06T21:39:53.005Z,97651.28
2022-12-06T21:42:23.668Z,97655.66
2022-12-06T21:44:52.098Z,97652.91
2022-12-06T21:47:20.499Z,97641.88
2022-12-06T21:49:48.870Z,97652.91
2022-12-06T21:52:18.706Z,97652.91
2022-12-06T21:54:47.157Z,97659.22
2022-12-06T21:57:15.613Z,97666.38
2022-12-06T21:59:43.983Z,97658.41
2022-12-06T22:02:12.462Z,97660.84
2022-12-06T22:04:41.101Z,97666.38
2022-12-06T22:07:09.475Z,97667.22
2022-12-06T22:09:39.283Z,97669.44
2022-12-06T22:12:07.947Z,97668.31
2022-12-06T22:14:36.423Z,97671.06
2022-12-06T22:17:04.816Z,97663.94
2022-12-06T22:19:33.378Z,97664.56
2022-12-06T22:22:01.825Z,97674.59
2022-12-06T22:24:30.233Z,97675.56
2022-12-06T22:26:59.988Z,97675.19
2022-12-06T22:29:28.561Z,97677.78
2022-12-06T22:31:57.114Z,97675.66
2022-12-06T22:34:25.836Z,97668.03
2022-12-06T22:36:54.204Z,97669.78
2022-12-06T22:39:22.688Z,97664.09
2022-12-06T22:41:51.063Z,97664.72
2022-12-06T22:44:20.842Z,97661.81
2022-12-06T22:46:49.315Z,97656.94
2022-12-06T22:49:18.308Z,97655.63
2022-12-06T22:51:46.952Z,97659.81
2022-12-06T22:54:15.763Z,97656.56
2022-12-06T22:56:48.352Z,97657.69
2022-12-06T22:59:17.834Z,97650.06
2022-12-06T23:01:47.692Z,97655.56
2022-12-06T23:04:16.258Z,97657.81
2022-12-06T23:06:44.674Z,97652.31
2022-12-06T23:09:15.842Z,97654.56
2022-12-06T23:11:44.630Z,97649.69
2022-12-06T23:14:13.388Z,97652.94
2022-12-06T23:16:43.585Z,97653.25
2022-12-06T23:19:13.524Z,97654.06
2022-12-06T23:21:42.430Z,97653.56
2022-12-06T23:24:13.057Z,97655.50
2022-12-06T23:26:43.111Z,97651.94
2022-12-06T23:29:11.882Z,97649.50
2022-12-06T23:31:42.559Z,97647.88
2022-12-06T23:34:15.376Z,97656.44
2022-12-06T23:36:45.263Z,97641.03
2022-12-06T23:39:13.915Z,97649.31
2022-12-06T23:41:42.476Z,97643.81
2022-12-06T23:44:12.122Z,97650.44
2022-12-06T23:46:41.235Z,97644.13
2022-12-06T23:49:15.759Z,97646.06
2022-12-06T23:51:44.593Z,97642.81
2022-12-06T23:54:14.204Z,97646.69
2022-12-06T23:56:43.540Z,97639.22
2022-12-06T23:59:14.919Z,97628.84
